createdAt,value
2023-02-27T00:00:14.905Z,90065.13
2023-02-27T00:02:46.913Z,90069.22
2023-02-27T00:05:14.335Z,90068.63
2023-02-27T00:07:41.560Z,90059.16
2023-02-27T00:10:09.661Z,90054.44
2023-02-27T00:12:37.024Z,90060.25
2023-02-27T00:15:09.861Z,90049.41
2023-02-27T00:17:37.076Z,90043.84
2023-02-27T00:20:08.540Z,90050.69
2023-02-27T00:22:35.328Z,90049.41
2023-02-27T00:25:02.360Z,90040.00
2023-02-27T00:27:29.200Z,90035.88
2023-02-27T00:29:55.981Z,90041.47
2023-02-27T00:32:22.947Z,90032.34
2023-02-27T00:34:49.913Z,90039.44
2023-02-27T00:37:16.973Z,90037.97
2023-02-27T00:39:43.924Z,90034.72
2023-02-27T00:42:10.735Z,90051.38
2023-02-27T00:44:37.478Z,90047.97
2023-02-27T00:47:04.419Z,90049.47
2023-02-27T00:49:31.238Z,90054.50
2023-02-27T00:51:58.133Z,90059.28
2023-02-27T00:54:25.384Z,90055.03
2023-02-27T00:56:52.261Z,90050.34
2023-02-27T00:59:19.133Z,90051.31
2023-02-27T01:01:46.131Z,90058.00
2023-02-27T01:04:13.016Z,90058.31
2023-02-27T01:06:39.925Z,90074.03
2023-02-27T01:09:07.498Z,90061.66
2023-02-27T01:11:34.312Z,90054.03
2023-02-27T01:14:01.354Z,90042.28
2023-02-27T01:16:28.863Z,90050.81
2023-02-27T01:18:55.747Z,90050.69
2023-02-27T01:21:23.090Z,90056.63
2023-02-27T01:23:50.321Z,90057.56
2023-02-27T01:26:17.194Z,90058.94
2023-02-27T01:28:44.047Z,90063.66
2023-02-27T01:31:10.961Z,90066.63
2023-02-27T01:33:37.854Z,90074.50
2023-02-27T01:36:05.287Z,90076.16
2023-02-27T01:38:32.134Z,90065.75
2023-02-27T01:40:58.978Z,90069.72
2023-02-27T01:43:25.749Z,90073.53
2023-02-27T01:45:52.805Z,90082.84
2023-02-27T01:48:35.555Z,90084.22
2023-02-27T01:51:09.189Z,90087.91
2023-02-27T01:53:38.575Z,90092.53
2023-02-27T01:56:15.064Z,90099.34
2023-02-27T01:58:43.472Z,90106.38
2023-02-27T02:01:10.460Z,90111.50
2023-02-27T02:03:40.200Z,90119.19
2023-02-27T02:06:08.094Z,90106.13
2023-02-27T02:08:39.807Z,90107.38
2023-02-27T02:11:08.335Z,90108.34
2023-02-27T02:13:36.058Z,90108.28
2023-02-27T02:16:18.741Z,90108.22
2023-02-27T02:19:00.454Z,90106.88
2023-02-27T02:21:33.044Z,90112.16
2023-02-27T02:24:35.194Z,90124.13
2023-02-27T02:27:12.542Z,90123.53
2023-02-27T02:30:10.185Z,90123.25
2023-02-27T02:33:14.803Z,90123.97
2023-02-27T02:36:03.492Z,90111.91
2023-02-27T02:39:15.552Z,90123.09
2023-02-27T02:42:05.353Z,90131.31
2023-02-27T02:44:53.317Z,90136.03
2023-02-27T02:47:23.001Z,90143.88
2023-02-27T02:50:01.593Z,90139.44
2023-02-27T02:52:54.273Z,90138.69
2023-02-27T02:55:25.045Z,90128.66
2023-02-27T02:57:59.154Z,90142.81
2023-02-27T03:00:32.914Z,90151.44
2023-02-27T03:03:12.848Z,90141.81
2023-02-27T03:05:47.882Z,90147.22
2023-02-27T03:08:20.990Z,90149.44
2023-02-27T03:11:04.612Z,90147.94
2023-02-27T03:13:35.882Z,90157.47
2023-02-27T03:16:10.987Z,90166.56
2023-02-27T03:18:43.170Z,90168.75
2023-02-27T03:21:22.178Z,90170.78
2023-02-27T03:23:53.554Z,90165.13
2023-02-27T03:26:25.120Z,90171.66
2023-02-27T03:29:14.879Z,90165.31
2023-02-27T03:31:58.932Z,90172.84
2023-02-27T03:34:31.842Z,90156.53
2023-02-27T03:37:04.521Z,90152.75
2023-02-27T03:39:48.128Z,90140.03
2023-02-27T03:42:20.645Z,90148.50
2023-02-27T03:45:06.524Z,90150.41
2023-02-27T03:47:34.592Z,90152.31
2023-02-27T03:50:01.692Z,90152.72
2023-02-27T03:52:29.588Z,90145.25
2023-02-27T03:55:10.123Z,90143.75
2023-02-27T03:57:37.755Z,90139.50
2023-02-27T04:00:06.607Z,90138.38
2023-02-27T04:02:34.095Z,90147.13
2023-02-27T04:05:00.917Z,90155.28
2023-02-27T04:07:46.344Z,90151.25
2023-02-27T04:11:04.255Z,90170.94
2023-02-27T04:13:44.993Z,90165.72
2023-02-27T04:16:42.232Z,90157.56
2023-02-27T04:19:37.126Z,90158.47
2023-02-27T04:22:30.423Z,90169.38
2023-02-27T04:25:48.886Z,90168.63
2023-02-27T04:28:25.235Z,90169.56
2023-02-27T04:31:20.182Z,90172.94
2023-02-27T04:33:51.044Z,90175.41
2023-02-27T04:36:41.994Z,90176.81
2023-02-27T04:39:20.630Z,90185.78
2023-02-27T04:41:52.758Z,90188.03
2023-02-27T04:44:22.910Z,90193.63
2023-02-27T04:46:52.733Z,90189.25
2023-02-27T04:49:35.203Z,90194.03
2023-02-27T04:52:10.501Z,90192.69
2023-02-27T04:54:52.281Z,90199.78
2023-02-27T04:57:44.864Z,90197.25
2023-02-27T05:00:15.034Z,90194.47
2023-02-27T05:02:47.829Z,90211.63
2023-02-27T05:05:25.186Z,90216.63
2023-02-27T05:07:58.111Z,90214.59
2023-02-27T05:10:40.229Z,90232.63
2023-02-27T05:13:14.952Z,90224.03
2023-02-27T05:15:50.792Z,90237.59
2023-02-27T05:18:20.840Z,90234.75
2023-02-27T05:21:25.018Z,90239.28
2023-02-27T05:24:36.389Z,90247.03
2023-02-27T05:27:09.383Z,90253.00
2023-02-27T05:29:59.442Z,90250.41
2023-02-27T05:32:35.139Z,90255.84
2023-02-27T05:35:09.129Z,90251.38
2023-02-27T05:37:45.714Z,90263.91
2023-02-27T05:40:19.468Z,90256.94
2023-02-27T05:42:57.155Z,90263.22
2023-02-27T05:45:29.495Z,90263.91
2023-02-27T05:48:02.581Z,90273.16
2023-02-27T05:50:32.872Z,90275.78
2023-02-27T05:53:04.821Z,90287.34
2023-02-27T05:55:53.271Z,90293.94
2023-02-27T05:58:29.576Z,90292.88
2023-02-27T06:01:02.228Z,90289.50
2023-02-27T06:03:31.903Z,90294.06
2023-02-27T06:06:02.215Z,90294.16
2023-02-27T06:08:29.494Z,90295.59
2023-02-27T06:10:58.509Z,90300.47
2023-02-27T06:13:37.407Z,90307.13
2023-02-27T06:16:11.399Z,90302.09
2023-02-27T06:18:38.534Z,90305.00
2023-02-27T06:21:11.720Z,90306.06
2023-02-27T06:23:52.968Z,90302.00
2023-02-27T06:26:27.363Z,90298.09
2023-02-27T06:28:57.579Z,90300.00
2023-02-27T06:31:24.528Z,90292.84
2023-02-27T06:33:58.440Z,90288.78
2023-02-27T06:36:33.913Z,90293.59
2023-02-27T06:39:02.122Z,90299.38
2023-02-27T06:41:45.192Z,90312.41
2023-02-27T06:44:12.203Z,90317.63
2023-02-27T06:46:53.118Z,90323.47
2023-02-27T06:49:30.287Z,90327.66
2023-02-27T06:52:00.015Z,90321.44
2023-02-27T06:54:40.875Z,90308.81
2023-02-27T06:57:14.399Z,90298.03
2023-02-27T06:59:47.596Z,90293.16
2023-02-27T07:02:25.876Z,90292.69
2023-02-27T07:04:55.437Z,90301.88
2023-02-27T07:07:43.427Z,90315.53
2023-02-27T07:10:14.376Z,90297.16
2023-02-27T07:12:57.659Z,90294.19
2023-02-27T07:15:30.161Z,90286.56
2023-02-27T07:18:04.580Z,90289.00
2023-02-27T07:20:40.907Z,90287.84
2023-02-27T07:23:21.090Z,90289.03
2023-02-27T07:26:05.443Z,90292.00
2023-02-27T07:28:45.445Z,90284.06
2023-02-27T07:31:26.241Z,90293.38
2023-02-27T07:34:09.636Z,90280.47
2023-02-27T07:39:42.264Z,90281.06
2023-02-27T07:42:12.272Z,90277.41
2023-02-27T07:44:51.458Z,90273.03
2023-02-27T07:47:36.509Z,90276.91
2023-02-27T07:52:53.108Z,90264.25
2023-02-27T07:55:45.171Z,90265.97
2023-02-27T07:58:25.991Z,90264.41
2023-02-27T08:03:47.522Z,90268.69
2023-02-27T08:06:22.070Z,90271.72
2023-02-27T08:08:53.787Z,90269.28
2023-02-27T08:11:25.895Z,90267.84
2023-02-27T08:14:01.485Z,90261.06
2023-02-27T08:16:34.885Z,90266.81
2023-02-27T08:19:11.051Z,90273.34
2023-02-27T08:21:42.986Z,90271.00
2023-02-27T08:24:12.018Z,90264.69
2023-02-27T08:26:45.956Z,90261.28
2023-02-27T08:29:22.052Z,90262.97
2023-02-27T08:31:55.980Z,90269.38
2023-02-27T08:34:27.632Z,90264.97
2023-02-27T08:37:00.007Z,90269.06
2023-02-27T08:39:43.018Z,90270.75
2023-02-27T08:42:09.978Z,90275.00
2023-02-27T08:44:36.892Z,90270.03
2023-02-27T08:47:04.035Z,90269.16
2023-02-27T08:49:30.891Z,90271.66
2023-02-27T08:51:57.813Z,90286.75
2023-02-27T08:54:24.894Z,90291.22
2023-02-27T08:56:51.753Z,90292.47
2023-02-27T08:59:18.609Z,90285.22
2023-02-27T09:01:45.411Z,90283.19
2023-02-27T09:04:12.299Z,90274.63
2023-02-27T09:06:39.405Z,90277.34
2023-02-27T09:09:07.103Z,90290.00
2023-02-27T09:11:33.961Z,90286.09
2023-02-27T09:14:01.283Z,90280.34
2023-02-27T09:16:28.530Z,90275.97
2023-02-27T09:18:55.609Z,90282.41
2023-02-27T09:21:22.775Z,90266.56
2023-02-27T09:23:49.723Z,90275.88
2023-02-27T09:26:16.597Z,90268.22
2023-02-27T09:28:43.805Z,90272.38
2023-02-27T09:31:11.308Z,90265.88
2023-02-27T09:33:38.953Z,90264.63
2023-02-27T09:36:06.834Z,90265.63
2023-02-27T09:38:35.440Z,90253.81
2023-02-27T09:41:03.159Z,90251.72
2023-02-27T09:43:43.342Z,90255.41
2023-02-27T09:46:18.173Z,90266.63
2023-02-27T09:48:53.514Z,90260.03
2023-02-27T09:51:21.774Z,90271.56
2023-02-27T09:53:54.312Z,90269.56
2023-02-27T09:56:35.890Z,90269.28
2023-02-27T09:59:44.411Z,90270.94
2023-02-27T10:02:44.419Z,90267.44
2023-02-27T10:05:31.404Z,90260.63
2023-02-27T10:08:15.038Z,90250.88
2023-02-27T10:10:56.363Z,90245.34
2023-02-27T10:13:33.782Z,90254.13
2023-02-27T10:16:03.637Z,90245.22
2023-02-27T10:18:44.731Z,90243.53
2023-02-27T10:21:16.441Z,90242.66
2023-02-27T10:23:55.239Z,90238.88
2023-02-27T10:26:37.604Z,90235.38
2023-02-27T10:29:29.607Z,90235.78
2023-02-27T10:32:17.994Z,90230.97
2023-02-27T10:35:10.904Z,90223.97
2023-02-27T10:37:45.502Z,90231.09
2023-02-27T10:40:15.453Z,90225.81
2023-02-27T10:42:43.300Z,90223.50
2023-02-27T10:45:14.838Z,90219.84
2023-02-27T10:47:42.331Z,90205.91
2023-02-27T10:50:33.524Z,90211.19
2023-02-27T10:53:03.461Z,90194.13
2023-02-27T10:55:34.813Z,90185.72
2023-02-27T10:58:03.476Z,90186.88
2023-02-27T11:00:41.526Z,90185.78
2023-02-27T11:03:19.788Z,90182.22
2023-02-27T11:05:57.494Z,90193.09
2023-02-27T11:08:29.908Z,90192.56
2023-02-27T11:11:04.119Z,90194.59
2023-02-27T11:13:33.646Z,90189.66
2023-02-27T11:16:08.590Z,90184.78
2023-02-27T11:18:37.526Z,90188.06
2023-02-27T11:21:13.149Z,90189.91
2023-02-27T11:23:56.860Z,90189.50
2023-02-27T11:26:39.404Z,90196.72
2023-02-27T11:29:17.791Z,90192.25
2023-02-27T11:31:54.297Z,90204.59
2023-02-27T11:34:38.951Z,90200.47
2023-02-27T11:37:26.270Z,90201.69
2023-02-27T11:40:03.339Z,90197.09
2023-02-27T11:42:34.163Z,90201.19
2023-02-27T11:46:04.732Z,90198.56
2023-02-27T11:48:28.771Z,90196.50
2023-02-27T11:50:58.411Z,90197.50
2023-02-27T11:53:25.171Z,90201.88
2023-02-27T11:55:56.265Z,90199.25
2023-02-27T11:58:26.221Z,90195.97
2023-02-27T12:01:01.656Z,90202.44
2023-02-27T12:03:28.442Z,90201.69
2023-02-27T12:06:00.771Z,90198.84
2023-02-27T12:09:11.736Z,90185.19
2023-02-27T12:11:44.388Z,90181.75
2023-02-27T12:14:25.533Z,90178.63
2023-02-27T12:17:38.735Z,90178.09
2023-02-27T12:20:29.573Z,90176.81
2023-02-27T12:22:56.459Z,90176.03
2023-02-27T12:25:44.954Z,90175.59
2023-02-27T12:28:26.787Z,90179.38
2023-02-27T12:31:27.529Z,90180.97
2023-02-27T12:34:04.784Z,90177.47
2023-02-27T12:36:31.833Z,90187.22
2023-02-27T12:38:58.706Z,90177.91
2023-02-27T12:41:43.433Z,90177.19
2023-02-27T12:44:22.274Z,90178.84
2023-02-27T12:47:18.371Z,90179.03
2023-02-27T12:49:53.216Z,90181.44
2023-02-27T12:52:26.010Z,90180.72
2023-02-27T12:55:00.788Z,90173.84
2023-02-27T12:57:48.784Z,90179.00
2023-02-27T13:01:02.042Z,90172.34
2023-02-27T13:03:33.266Z,90181.44
2023-02-27T13:06:18.209Z,90183.50
2023-02-27T13:09:14.895Z,90182.22
2023-02-27T13:12:05.672Z,90186.56
2023-02-27T13:14:56.289Z,90180.25
2023-02-27T13:17:45.902Z,90179.59
2023-02-27T13:20:21.421Z,90178.59
2023-02-27T13:22:52.420Z,90169.75
2023-02-27T13:25:20.669Z,90171.47
2023-02-27T13:27:52.361Z,90167.84
2023-02-27T13:30:28.349Z,90171.03
2023-02-27T13:33:01.007Z,90163.22
2023-02-27T13:36:03.047Z,90157.34
2023-02-27T13:38:46.618Z,90160.44
2023-02-27T13:41:25.799Z,90151.91
2023-02-27T13:44:21.370Z,90146.53
2023-02-27T13:46:48.416Z,90145.00
2023-02-27T13:49:29.244Z,90148.38
2023-02-27T13:52:05.017Z,90151.75
2023-02-27T13:54:34.452Z,90145.91
2023-02-27T13:57:25.688Z,90150.53
2023-02-27T13:59:58.138Z,90145.50
2023-02-27T14:02:25.186Z,90146.00
2023-02-27T14:04:55.425Z,90149.41
2023-02-27T14:07:25.585Z,90154.91
2023-02-27T14:10:06.266Z,90150.28
2023-02-27T14:12:45.713Z,90155.88
2023-02-27T14:15:25.298Z,90149.69
2023-02-27T14:18:09.680Z,90148.38
2023-02-27T14:20:40.986Z,90146.38
2023-02-27T14:23:27.249Z,90143.69
2023-02-27T14:26:02.252Z,90149.03
2023-02-27T14:28:48.460Z,90151.69
2023-02-27T14:31:28.379Z,90149.16
2023-02-27T14:34:00.020Z,90156.69
2023-02-27T14:36:31.569Z,90156.16
2023-02-27T14:39:00.852Z,90150.28
2023-02-27T14:41:36.268Z,90155.34
2023-02-27T14:44:04.285Z,90154.81
2023-02-27T14:46:38.499Z,90147.69
2023-02-27T14:49:25.375Z,90158.59
2023-02-27T14:51:52.310Z,90162.91
2023-02-27T14:54:26.960Z,90170.78
2023-02-27T14:57:00.654Z,90169.00
2023-02-27T14:59:42.824Z,90168.25
2023-02-27T15:02:16.321Z,90171.06
2023-02-27T15:04:43.256Z,90173.63
2023-02-27T15:07:21.616Z,90174.81
2023-02-27T15:09:53.963Z,90179.31
2023-02-27T15:12:22.637Z,90189.69
2023-02-27T15:14:56.851Z,90186.72
2023-02-27T15:17:29.068Z,90189.69
2023-02-27T15:19:58.249Z,90182.06
2023-02-27T15:22:38.017Z,90190.34
2023-02-27T15:25:06.087Z,90195.41
2023-02-27T15:27:34.887Z,90193.94
2023-02-27T15:30:02.682Z,90197.75
2023-02-27T15:32:33.670Z,90200.63
2023-02-27T15:35:16.254Z,90209.84
2023-02-27T15:37:49.652Z,90211.97
2023-02-27T15:40:21.354Z,90215.59
2023-02-27T15:42:49.007Z,90210.16
2023-02-27T15:45:20.554Z,90218.91
2023-02-27T15:47:48.427Z,90224.00
2023-02-27T15:50:18.221Z,90226.66
2023-02-27T15:53:19.292Z,90213.94
2023-02-27T15:56:08.247Z,90233.84
2023-02-27T15:58:43.423Z,90230.66
2023-02-27T16:01:20.142Z,90236.63
2023-02-27T16:03:50.296Z,90236.75
2023-02-27T16:06:39.270Z,90238.50
2023-02-27T16:09:19.634Z,90241.13
2023-02-27T16:11:46.566Z,90236.91
2023-02-27T16:14:42.951Z,90230.78
2023-02-27T16:17:29.839Z,90238.06
2023-02-27T16:20:01.313Z,90243.22
2023-02-27T16:22:28.642Z,90235.66
2023-02-27T16:25:10.824Z,90241.47
2023-02-27T16:27:39.401Z,90238.81
2023-02-27T16:30:11.592Z,90238.28
2023-02-27T16:32:42.651Z,90249.63
2023-02-27T16:35:22.606Z,90247.78
2023-02-27T16:37:50.128Z,90247.16
2023-02-27T16:40:23.089Z,90248.63
2023-02-27T16:42:51.207Z,90248.09
2023-02-27T16:45:25.436Z,90248.38
2023-02-27T16:47:58.153Z,90254.69
2023-02-27T16:50:33.832Z,90259.91
2023-02-27T16:53:00.907Z,90266.81
2023-02-27T16:55:28.291Z,90254.28
2023-02-27T16:57:55.212Z,90261.19
2023-02-27T17:00:22.237Z,90262.72
2023-02-27T17:02:50.196Z,90267.81
2023-02-27T17:05:18.051Z,90270.31
2023-02-27T17:07:46.068Z,90272.19
2023-02-27T17:10:19.800Z,90267.25
2023-02-27T17:12:48.497Z,90271.41
2023-02-27T17:15:16.517Z,90281.06
2023-02-27T17:17:43.791Z,90283.59
2023-02-27T17:20:14.910Z,90284.13
2023-02-27T17:22:45.314Z,90283.06
2023-02-27T17:25:13.874Z,90277.59
2023-02-27T17:27:43.909Z,90276.88
2023-02-27T17:30:12.001Z,90278.88
2023-02-27T17:32:39.141Z,90271.97
2023-02-27T17:35:06.469Z,90278.84
2023-02-27T17:37:33.471Z,90274.28
2023-02-27T17:40:00.401Z,90282.28
2023-02-27T17:42:27.748Z,90279.91
2023-02-27T17:44:54.682Z,90282.50
2023-02-27T17:47:22.566Z,90288.66
2023-02-27T17:49:49.784Z,90288.78
2023-02-27T17:52:17.457Z,90288.88
2023-02-27T17:54:44.246Z,90282.38
2023-02-27T17:57:11.138Z,90293.94
2023-02-27T17:59:38.098Z,90281.53
2023-02-27T18:02:05.266Z,90274.53
2023-02-27T18:04:32.322Z,90272.75
2023-02-27T18:07:00.215Z,90280.03
2023-02-27T18:09:27.392Z,90276.38
2023-02-27T18:11:55.212Z,90276.28
2023-02-27T18:14:22.409Z,90273.31
2023-02-27T18:16:49.184Z,90281.94
2023-02-27T18:19:16.961Z,90283.25
2023-02-27T18:21:44.339Z,90276.00
2023-02-27T18:24:11.119Z,90275.44
2023-02-27T18:26:38.672Z,90280.25
2023-02-27T18:29:10.026Z,90292.78
2023-02-27T18:31:38.838Z,90284.88
2023-02-27T18:34:06.494Z,90289.00
2023-02-27T18:36:34.072Z,90282.84
2023-02-27T18:39:01.143Z,90281.38
2023-02-27T18:41:28.698Z,90273.94
2023-02-27T18:43:55.768Z,90286.34
2023-02-27T18:46:22.746Z,90294.34
2023-02-27T18:48:49.735Z,90298.78
2023-02-27T18:51:18.441Z,90293.59
2023-02-27T18:53:48.866Z,90289.38
2023-02-27T18:56:19.746Z,90291.75
2023-02-27T18:58:46.808Z,90297.66
2023-02-27T19:01:23.564Z,90291.69
2023-02-27T19:03:54.156Z,90290.59
2023-02-27T19:06:21.031Z,90292.53
2023-02-27T19:08:48.131Z,90294.00
2023-02-27T19:11:26.241Z,90295.19
2023-02-27T19:13:54.217Z,90295.47
2023-02-27T19:16:21.345Z,90304.66
2023-02-27T19:18:48.287Z,90302.47
2023-02-27T19:21:15.146Z,90308.13
2023-02-27T19:23:42.164Z,90305.38
2023-02-27T19:26:09.331Z,90305.66
2023-02-27T19:28:36.294Z,90299.75
2023-02-27T19:31:11.308Z,90316.13
2023-02-27T19:33:38.342Z,90307.69
2023-02-27T19:36:16.574Z,90311.38
2023-02-27T19:38:44.864Z,90314.56
2023-02-27T19:41:14.770Z,90318.41
2023-02-27T19:43:41.986Z,90322.09
2023-02-27T19:46:11.622Z,90324.03
2023-02-27T19:48:39.090Z,90328.44
2023-02-27T19:51:08.896Z,90322.25
2023-02-27T19:53:37.796Z,90320.06
2023-02-27T19:56:08.154Z,90317.56
2023-02-27T19:58:36.017Z,90316.66
2023-02-27T20:01:04.798Z,90325.56
2023-02-27T20:03:32.396Z,90312.41
2023-02-27T20:06:00.425Z,90324.09
2023-02-27T20:08:27.701Z,90316.72
2023-02-27T20:11:01.743Z,90314.69
2023-02-27T20:13:29.301Z,90310.25
2023-02-27T20:15:58.289Z,90311.47
2023-02-27T20:18:25.432Z,90303.66
2023-02-27T20:21:07.921Z,90301.19
2023-02-27T20:23:37.488Z,90310.09
2023-02-27T20:26:22.850Z,90307.72
2023-02-27T20:28:52.576Z,90317.34
2023-02-27T20:31:21.656Z,90306.69
2023-02-27T20:33:49.227Z,90315.16
2023-02-27T20:36:16.944Z,90312.78
2023-02-27T20:38:44.352Z,90311.28
2023-02-27T20:41:16.858Z,90316.09
2023-02-27T20:43:44.077Z,90317.53
2023-02-27T20:46:17.818Z,90326.31
2023-02-27T20:48:44.824Z,90326.72
2023-02-27T20:51:17.726Z,90315.78
2023-02-27T20:53:46.309Z,90309.28
2023-02-27T20:56:14.161Z,90306.38
2023-02-27T20:58:41.565Z,90317.63
2023-02-27T21:01:12.908Z,90320.25
2023-02-27T21:03:41.179Z,90323.31
2023-02-27T21:06:14.122Z,90329.69
2023-02-27T21:08:46.678Z,90332.94
2023-02-27T21:11:22.771Z,90337.78
2023-02-27T21:13:49.521Z,90344.19
2023-02-27T21:16:18.690Z,90331.31
2023-02-27T21:18:45.973Z,90329.44
2023-02-27T21:21:17.915Z,90330.66
2023-02-27T21:23:45.071Z,90328.44
2023-02-27T21:26:19.250Z,90327.06
2023-02-27T21:29:04.381Z,90328.16
2023-02-27T21:31:33.405Z,90339.09
2023-02-27T21:34:02.765Z,90339.66
2023-02-27T21:36:33.806Z,90331.97
2023-02-27T21:39:03.753Z,90336.84
2023-02-27T21:41:30.972Z,90335.94
2023-02-27T21:44:02.713Z,90336.69
2023-02-27T21:46:29.932Z,90328.84
2023-02-27T21:48:57.436Z,90327.34
2023-02-27T21:51:38.757Z,90330.75
2023-02-27T21:54:07.303Z,90332.41
2023-02-27T21:56:34.196Z,90333.81
2023-02-27T21:59:02.129Z,90333.63
2023-02-27T22:01:30.115Z,90333.78
2023-02-27T22:03:57.845Z,90333.19
2023-02-27T22:06:27.145Z,90332.16
2023-02-27T22:08:55.981Z,90342.22
2023-02-27T22:11:24.147Z,90344.56
2023-02-27T22:13:51.180Z,90341.91
2023-02-27T22:16:18.916Z,90344.59
2023-02-27T22:18:46.151Z,90327.72
2023-02-27T22:21:17.039Z,90333.34
2023-02-27T22:23:45.280Z,90339.84
2023-02-27T22:26:15.623Z,90337.19
2023-02-27T22:28:42.707Z,90334.69
2023-02-27T22:31:21.089Z,90336.59
2023-02-27T22:33:50.145Z,90337.03
2023-02-27T22:36:24.830Z,90330.97
2023-02-27T22:38:52.353Z,90333.94
2023-02-27T22:41:24.954Z,90336.16
2023-02-27T22:43:52.067Z,90334.22
2023-02-27T22:46:39.743Z,90333.94
2023-02-27T22:49:10.676Z,90329.94
2023-02-27T22:51:37.749Z,90326.41
2023-02-27T22:54:06.875Z,90321.25
2023-02-27T22:56:34.510Z,90327.75
2023-02-27T22:59:01.383Z,90325.69
2023-02-27T23:01:31.819Z,90326.16
2023-02-27T23:04:01.594Z,90327.34
2023-02-27T23:06:31.319Z,90328.97
2023-02-27T23:08:58.588Z,90319.84
2023-02-27T23:11:25.560Z,90326.75
2023-02-27T23:13:52.918Z,90331.19
2023-02-27T23:16:22.151Z,90328.38
2023-02-27T23:18:52.072Z,90328.81
2023-02-27T23:21:22.957Z,90322.03
2023-02-27T23:23:50.695Z,90329.44
2023-02-27T23:26:17.516Z,90324.53
2023-02-27T23:28:44.308Z,90325.88
2023-02-27T23:31:11.190Z,90322.31
2023-02-27T23:33:38.212Z,90329.56
2023-02-27T23:36:05.311Z,90326.00
2023-02-27T23:38:32.628Z,90328.25
2023-02-27T23:41:06.453Z,90317.75
2023-02-27T23:43:33.718Z,90327.06
2023-02-27T23:46:09.341Z,90333.84
2023-02-27T23:48:36.583Z,90333.69
2023-02-27T23:51:06.073Z,90331.66
2023-02-27T23:53:34.006Z,90332.22
2023-02-27T23:56:01.010Z,90344.63
2023-02-27T23:58:27.846Z,90320.69
